Time;durP1;ratioP1;P1;durP2;ratioP2;P2;SDS_P1;SDS_P2;PMS_P1;PMS_P2;Temp;Humidity;BMP_temperature;BMP_pressure;BME280_temperature;BME280_humidity;BME280_pressure;Samples;Min_cycle;Max_cycle;Signal;HPM_P1;HPM_P2
2021/05/18 00:00:47;;;;;;;23.35;8.55;;;11.60;87.20;;;;;;5031240;28;20030;-76
2021/05/18 00:03:16;;;;;;;26.88;9.55;;;11.60;87.30;;;;;;5016790;28;20172;-76
2021/05/18 00:05:46;;;;;;;20.60;9.63;;;11.60;87.10;;;;;;5004383;28;20030;-78
2021/05/18 00:08:13;;;;;;;25.73;9.73;;;11.50;87.20;;;;;;5009560;28;20050;-75
2021/05/18 00:13:29;;;;;;;25.80;10.35;;;11.60;87.10;;;;;;4998495;28;20079;-75
2021/05/18 00:15:58;;;;;;;24.70;10.35;;;11.60;87.20;;;;;;5004613;28;20484;-76
2021/05/18 00:18:25;;;;;;;24.02;9.88;;;11.50;87.30;;;;;;5009765;28;20365;-76
2021/05/18 00:20:51;;;;;;;24.10;10.57;;;11.50;87.20;;;;;;5002214;28;20041;-77
2021/05/18 00:23:17;;;;;;;24.52;8.85;;;11.50;87.30;;;;;;5021091;28;20041;-81
2021/05/18 00:25:43;;;;;;;25.95;10.18;;;11.50;87.30;;;;;;5026534;28;20464;-77
2021/05/18 00:28:10;;;;;;;25.45;9.57;;;11.40;87.70;;;;;;5022987;28;20029;-79
2021/05/18 00:30:37;;;;;;;25.52;10.07;;;11.40;87.80;;;;;;5014609;28;20112;-74
2021/05/18 00:33:07;;;;;;;32.25;10.30;;;11.40;87.80;;;;;;5016960;28;20029;-78
2021/05/18 00:35:33;;;;;;;27.50;10.35;;;11.40;87.60;;;;;;5030033;28;20054;-74
2021/05/18 00:37:59;;;;;;;23.63;9.90;;;11.40;87.70;;;;;;5024820;28;20046;-79
2021/05/18 00:40:25;;;;;;;24.50;9.82;;;11.40;87.90;;;;;;5026233;28;20072;-75
2021/05/18 00:42:53;;;;;;;26.00;10.65;;;11.30;87.70;;;;;;5011231;28;20034;-79
2021/05/18 00:45:32;;;;;;;25.13;10.55;;;11.30;88.00;;;;;;5021322;28;20029;-77
2021/05/18 00:47:59;;;;;;;32.78;10.55;;;11.30;87.90;;;;;;5022292;28;20049;-77
2021/05/18 00:50:25;;;;;;;31.67;11.38;;;11.30;87.90;;;;;;5022918;28;20048;-75
2021/05/18 00:52:51;;;;;;;27.17;9.77;;;11.20;87.90;;;;;;5014413;28;20366;-75
2021/05/18 00:55:42;;;;;;;25.10;10.25;;;11.30;87.80;;;;;;5023299;28;20103;-75
2021/05/18 01:00:59;;;;;;;20.85;9.77;;;11.40;87.80;;;;;;5023914;28;20083;-75
2021/05/18 01:03:26;;;;;;;23.70;10.53;;;11.30;87.60;;;;;;5009627;28;20049;-75
2021/05/18 01:08:37;;;;;;;27.20;10.00;;;11.30;87.60;;;;;;4998985;28;20076;-76
2021/05/18 01:11:05;;;;;;;27.80;10.98;;;11.20;87.60;;;;;;5009548;28;20026;-77
2021/05/18 01:13:31;;;;;;;27.75;12.13;;;11.20;87.70;;;;;;5000041;28;20030;-76
2021/05/18 01:15:57;;;;;;;27.65;11.18;;;11.20;87.80;;;;;;5016451;28;20405;-75
2021/05/18 01:18:23;;;;;;;28.38;11.77;;;11.20;88.00;;;;;;5028315;28;20064;-77
2021/05/18 01:20:59;;;;;;;24.60;11.27;;;11.10;88.10;;;;;;5025904;28;20034;-75
2021/05/18 01:23:25;;;;;;;27.05;11.63;;;11.10;88.20;;;;;;5006041;28;20069;-75
2021/05/18 01:25:52;;;;;;;27.83;12.77;;;11.10;88.20;;;;;;5016943;28;20061;-79
2021/05/18 01:28:18;;;;;;;24.92;11.35;;;11.10;88.20;;;;;;5024346;28;20036;-77
2021/05/18 01:30:45;;;;;;;28.77;11.63;;;11.20;88.20;;;;;;5026176;28;20034;-80
2021/05/18 01:33:10;;;;;;;27.52;11.70;;;11.20;88.10;;;;;;5009940;28;20029;-77
2021/05/18 01:35:37;;;;;;;24.33;10.65;;;11.10;88.10;;;;;;5020873;28;20083;-75
2021/05/18 01:38:07;;;;;;;27.35;11.60;;;11.10;88.20;;;;;;5012405;28;20041;-77
2021/05/18 01:43:07;;;;;;;27.17;12.73;;;11.10;88.20;;;;;;5023977;28;20437;-78
2021/05/18 01:45:34;;;;;;;32.13;12.60;;;11.10;88.30;;;;;;5031296;28;20041;-75
2021/05/18 01:48:04;;;;;;;32.90;12.73;;;11.10;88.10;;;;;;5023367;28;20560;-81
2021/05/18 01:50:31;;;;;;;25.92;11.48;;;11.00;88.20;;;;;;5006589;28;20465;-77
2021/05/18 01:52:57;;;;;;;28.65;12.93;;;11.00;88.30;;;;;;5017859;28;20040;-75
2021/05/18 01:57:53;;;;;;;29.25;12.52;;;11.00;88.50;;;;;;5031367;28;20038;-75
2021/05/18 02:00:22;;;;;;;26.67;11.55;;;10.90;88.50;;;;;;5015542;28;20028;-75
2021/05/18 02:02:48;;;;;;;24.80;13.82;;;10.90;88.50;;;;;;5024894;28;20053;-76
2021/05/18 02:05:15;;;;;;;26.20;12.10;;;10.90;88.50;;;;;;5026431;28;20037;-75
2021/05/18 02:07:43;;;;;;;23.92;12.68;;;10.90;88.60;;;;;;5025744;28;20140;-75
2021/05/18 02:10:14;;;;;;;24.67;12.32;;;10.90;88.50;;;;;;5001709;28;20373;-75
2021/05/18 02:12:40;;;;;;;22.00;11.27;;;10.90;88.60;;;;;;5041895;28;20035;-75
2021/05/18 02:15:30;;;;;;;23.85;11.93;;;10.80;88.60;;;;;;5027213;28;20033;-78
2021/05/18 02:21:02;;;;;;;28.90;12.48;;;10.90;88.60;;;;;;5019091;28;20076;-77
2021/05/18 02:26:13;;;;;;;31.30;12.30;;;10.80;88.40;;;;;;4993934;28;20122;-79
2021/05/18 02:28:39;;;;;;;24.05;12.15;;;10.80;88.40;;;;;;5022301;28;20037;-77
2021/05/18 02:31:05;;;;;;;20.55;10.98;;;10.80;88.50;;;;;;5005562;28;20087;-80
2021/05/18 02:33:30;;;;;;;21.38;11.50;;;10.80;88.50;;;;;;5007683;28;20042;-78
2021/05/18 02:35:56;;;;;;;24.58;11.63;;;10.80;88.60;;;;;;5018047;28;20026;-75
2021/05/18 02:38:22;;;;;;;23.30;10.57;;;10.80;88.60;;;;;;5019583;28;20187;-78
2021/05/18 02:40:48;;;;;;;27.80;12.15;;;10.80;88.40;;;;;;5022327;28;20164;-77
2021/05/18 02:43:19;;;;;;;21.63;10.65;;;10.80;88.50;;;;;;5013676;28;20550;-76
2021/05/18 02:46:02;;;;;;;19.85;11.13;;;10.80;88.50;;;;;;5024963;28;20369;-77
2021/05/18 02:51:12;;;;;;;19.42;10.05;;;10.80;88.50;;;;;;5007703;28;20346;-76
2021/05/18 02:53:38;;;;;;;21.70;10.13;;;10.80;88.40;;;;;;5011647;28;20022;-76
2021/05/18 02:56:12;;;;;;;19.08;9.98;;;10.90;88.40;;;;;;5019778;28;20036;-76
2021/05/18 02:58:39;;;;;;;23.53;11.03;;;10.90;88.30;;;;;;5019699;28;20045;-76
2021/05/18 03:01:05;;;;;;;21.88;10.13;;;10.90;88.10;;;;;;5004385;28;20826;-76
2021/05/18 03:03:31;;;;;;;23.60;11.07;;;10.90;88.10;;;;;;5016857;28;20050;-76
2021/05/18 03:05:56;;;;;;;23.23;11.05;;;10.90;88.10;;;;;;5029177;28;20037;-77
2021/05/18 03:08:22;;;;;;;20.50;10.57;;;10.90;88.00;;;;;;5016019;28;20043;-77
2021/05/18 03:10:48;;;;;;;21.27;10.52;;;10.90;88.00;;;;;;5010732;28;20512;-76
2021/05/18 03:13:14;;;;;;;21.77;11.23;;;10.90;88.00;;;;;;5025178;28;20053;-76
2021/05/18 03:15:40;;;;;;;19.88;10.43;;;11.00;88.00;;;;;;5029515;28;20017;-78
2021/05/18 03:18:05;;;;;;;20.40;10.98;;;11.00;88.00;;;;;;5029129;28;20049;-77
2021/05/18 03:20:32;;;;;;;24.20;11.35;;;10.90;88.00;;;;;;5006959;28;20035;-76
2021/05/18 03:22:57;;;;;;;18.52;10.48;;;11.00;87.90;;;;;;4998989;28;20042;-78
2021/05/18 03:25:23;;;;;;;19.00;11.25;;;11.00;87.80;;;;;;5032326;28;20033;-78
2021/05/18 03:27:51;;;;;;;19.25;10.93;;;11.00;87.80;;;;;;5032131;28;20048;-76
2021/05/18 03:35:30;;;;;;;20.55;11.20;;;10.90;87.70;;;;;;5023856;28;20036;-76
2021/05/18 03:37:59;;;;;;;17.15;10.27;;;10.90;87.90;;;;;;5033033;28;20037;-76
2021/05/18 03:40:27;;;;;;;18.02;10.65;;;10.90;87.40;;;;;;5033197;28;20125;-79
2021/05/18 03:43:07;;;;;;;19.17;11.38;;;10.90;87.50;;;;;;5030554;28;20026;-77
2021/05/18 03:45:35;;;;;;;17.33;10.88;;;11.00;87.40;;;;;;5008002;28;20037;-78
2021/05/18 03:54:20;;;;;;;17.85;10.63;;;10.90;86.90;;;;;;5002152;28;20496;-77
2021/05/18 04:04:25;;;;;;;17.27;10.20;;;11.00;87.10;;;;;;5031011;28;20072;-77
2021/05/18 04:17:44;;;;;;;13.52;9.10;;;11.00;86.80;;;;;;5020313;28;20047;-77
2021/05/18 04:49:56;;;;;;;11.68;6.07;;;11.10;85.50;;;;;;5001555;28;20034;-78
2021/05/18 04:52:25;;;;;;;10.45;6.03;;;11.10;85.10;;;;;;4993354;28;20120;-76
2021/05/18 05:00:17;;;;;;;12.40;6.03;;;11.30;85.00;;;;;;4992307;28;20570;-82
2021/05/18 05:08:25;;;;;;;12.43;6.97;;;11.60;84.90;;;;;;4991229;28;20127;-81
2021/05/18 05:16:04;;;;;;;14.10;7.57;;;11.60;84.90;;;;;;4989549;28;20576;-82
2021/05/18 05:18:29;;;;;;;15.70;8.07;;;11.60;84.30;;;;;;4985575;28;20029;-82
2021/05/18 05:20:55;;;;;;;15.60;7.45;;;11.70;84.30;;;;;;5004036;28;20045;-76
2021/05/18 05:23:21;;;;;;;13.32;7.43;;;11.70;84.30;;;;;;5010075;28;20046;-83
2021/05/18 05:25:46;;;;;;;13.15;7.90;;;11.80;84.20;;;;;;5010559;28;20047;-80
2021/05/18 05:28:12;;;;;;;14.88;7.50;;;11.70;84.30;;;;;;5015418;28;20108;-74
2021/05/18 05:30:38;;;;;;;16.60;8.13;;;11.70;84.40;;;;;;5018697;28;20339;-76
2021/05/18 05:33:04;;;;;;;15.05;7.95;;;11.70;84.10;;;;;;5025548;28;20045;-70
2021/05/18 05:35:30;;;;;;;12.88;7.57;;;11.80;84.60;;;;;;5009581;28;20121;-70
2021/05/18 05:37:56;;;;;;;12.73;6.85;;;11.80;84.00;;;;;;5013742;28;20037;-70
2021/05/18 05:40:22;;;;;;;14.63;7.25;;;11.90;84.00;;;;;;5021147;28;20041;-70
2021/05/18 05:42:48;;;;;;;13.52;6.63;;;12.10;83.80;;;;;;5014888;28;20045;-70
2021/05/18 05:45:14;;;;;;;13.68;6.75;;;12.10;83.40;;;;;;5021764;28;20036;-70
2021/05/18 05:47:40;;;;;;;15.00;6.28;;;12.30;82.80;;;;;;5024513;28;20080;-72
2021/05/18 05:50:06;;;;;;;18.40;6.57;;;12.40;81.60;;;;;;5027284;28;20068;-71
2021/05/18 05:52:33;;;;;;;13.77;6.53;;;12.30;81.40;;;;;;5020363;28;20073;-70
2021/05/18 05:54:58;;;;;;;11.25;6.50;;;12.10;81.80;;;;;;4992462;28;20029;-71
2021/05/18 05:57:24;;;;;;;13.27;6.32;;;12.10;81.90;;;;;;5011673;28;20038;-70
2021/05/18 05:59:50;;;;;;;14.57;6.47;;;12.50;81.90;;;;;;5012056;28;20065;-69
2021/05/18 06:02:16;;;;;;;12.13;6.75;;;12.70;80.60;;;;;;5014565;28;20041;-70
2021/05/18 06:04:42;;;;;;;11.02;6.35;;;12.90;80.50;;;;;;5025767;28;20055;-70
2021/05/18 06:07:08;;;;;;;12.07;6.50;;;13.10;79.90;;;;;;5010792;28;20037;-72
2021/05/18 06:09:35;;;;;;;12.45;6.43;;;13.10;78.50;;;;;;5013707;28;20396;-73
2021/05/18 06:47:07;;;;;;;9.95;5.53;;;12.90;79.00;;;;;;5020222;28;20044;-69
2021/05/18 06:49:38;;;;;;;9.75;5.47;;;13.20;77.90;;;;;;5000866;28;20030;-68
2021/05/18 06:52:04;;;;;;;9.38;5.65;;;13.20;77.80;;;;;;5017404;28;20052;-70
2021/05/18 06:54:29;;;;;;;10.63;5.88;;;13.10;77.30;;;;;;5022168;28;20482;-70
2021/05/18 06:56:58;;;;;;;10.45;5.80;;;13.10;77.00;;;;;;5005002;28;20045;-69
2021/05/18 07:01:54;;;;;;;9.07;6.10;;;13.20;77.80;;;;;;5022009;28;20041;-70
2021/05/18 07:04:20;;;;;;;12.18;6.20;;;13.40;77.80;;;;;;5021524;28;20061;-69
2021/05/18 07:09:12;;;;;;;12.82;6.15;;;13.60;77.70;;;;;;5026134;28;20030;-69
2021/05/18 07:11:38;;;;;;;9.70;5.50;;;13.70;76.60;;;;;;5024753;28;20034;-71
2021/05/18 07:14:04;;;;;;;9.50;5.13;;;13.70;75.70;;;;;;5024232;28;20033;-70
2021/05/18 07:16:30;;;;;;;10.80;5.63;;;13.80;75.40;;;;;;5014150;28;20496;-69
2021/05/18 07:18:56;;;;;;;10.52;5.50;;;14.20;74.40;;;;;;5016671;28;20022;-69
2021/05/18 07:21:21;;;;;;;9.85;5.40;;;14.10;73.70;;;;;;5015623;28;20057;-70
2021/05/18 07:23:48;;;;;;;8.75;5.35;;;14.00;74.00;;;;;;5016092;28;20072;-70
2021/05/18 07:26:13;;;;;;;8.38;5.30;;;14.10;73.60;;;;;;5019731;28;20033;-70
2021/05/18 07:28:39;;;;;;;11.52;5.43;;;14.40;74.60;;;;;;5025438;28;20101;-69
2021/05/18 07:31:06;;;;;;;9.77;5.55;;;14.60;73.20;;;;;;5014143;28;20383;-70
2021/05/18 07:33:32;;;;;;;10.38;5.45;;;14.50;72.60;;;;;;5021652;28;20030;-69
2021/05/18 07:36:03;;;;;;;8.23;5.22;;;14.60;71.40;;;;;;5020387;28;20037;-69
2021/05/18 07:38:28;;;;;;;10.10;5.95;;;14.80;70.20;;;;;;5016668;28;20045;-72
2021/05/18 07:40:57;;;;;;;8.55;4.65;;;15.10;70.90;;;;;;5019523;28;20034;-70
2021/05/18 07:43:23;;;;;;;7.95;4.57;;;15.10;69.60;;;;;;5016953;28;20481;-70
2021/05/18 07:46:00;;;;;;;10.43;5.07;;;15.10;68.30;;;;;;5019409;28;20120;-69
2021/05/18 07:59:20;;;;;;;7.53;4.85;;;14.20;69.70;;;;;;5019012;28;20084;-71
2021/05/18 08:07:15;;;;;;;9.23;4.88;;;14.70;69.00;;;;;;5021809;28;20036;-70
2021/05/18 08:12:36;;;;;;;9.85;5.25;;;15.00;67.70;;;;;;5014237;28;20428;-70
2021/05/18 08:17:42;;;;;;;7.68;4.82;;;15.40;66.90;;;;;;5030103;28;20033;-69
2021/05/18 08:46:46;;;;;;;;;;;15.10;64.10;;;;;;5001202;28;20045;-70
2021/05/18 09:36:35;;;;;;;7.40;2.97;;;17.10;54.90;;;;;;5022312;28;20134;-71
2021/05/18 10:36:13;;;;;;;6.30;2.60;;;18.10;47.80;;;;;;5012860;28;20064;-74
2021/05/18 10:38:45;;;;;;;3.55;1.92;;;17.60;48.00;;;;;;5017573;28;20088;-76
2021/05/18 10:41:14;;;;;;;5.47;2.03;;;18.00;48.50;;;;;;5017644;28;20460;-76
2021/05/18 10:43:40;;;;;;;5.70;1.80;;;17.50;48.10;;;;;;5023830;28;20104;-75
2021/05/18 10:46:12;;;;;;;4.55;1.92;;;17.00;48.40;;;;;;5023622;28;20065;-74
2021/05/18 10:48:37;;;;;;;6.03;2.15;;;16.70;47.90;;;;;;5013621;28;20025;-74
2021/05/18 10:51:36;;;;;;;4.45;2.20;;;16.80;49.80;;;;;;5020512;28;20034;-76
2021/05/18 10:54:23;;;;;;;4.07;2.45;;;17.10;50.80;;;;;;5007710;28;20034;-73
2021/05/18 10:57:01;;;;;;;5.15;2.22;;;17.70;49.60;;;;;;4993175;28;20030;-73
2021/05/18 10:59:43;;;;;;;4.28;2.13;;;17.60;49.10;;;;;;4998580;28;20527;-73
2021/05/18 11:02:09;;;;;;;4.78;2.53;;;17.30;48.60;;;;;;5001163;28;20053;-73
2021/05/18 11:04:37;;;;;;;3.75;2.17;;;17.40;48.20;;;;;;4999345;28;20044;-73
2021/05/18 11:07:05;;;;;;;6.28;2.83;;;17.60;49.60;;;;;;5005483;28;20501;-73
2021/05/18 11:09:32;;;;;;;6.65;2.58;;;17.90;49.60;;;;;;5002014;28;20473;-72
2021/05/18 11:12:01;;;;;;;4.85;2.72;;;17.60;47.60;;;;;;5001654;28;20375;-73
2021/05/18 11:14:34;;;;;;;5.50;2.28;;;17.20;49.40;;;;;;5012713;28;20029;-73
2021/05/18 11:17:17;;;;;;;4.10;2.28;;;17.00;50.00;;;;;;5020661;28;20429;-72
2021/05/18 11:19:53;;;;;;;4.35;2.30;;;17.10;50.00;;;;;;5022203;28;20044;-72
2021/05/18 11:25:09;;;;;;;4.32;2.10;;;17.90;48.10;;;;;;5018837;28;20030;-74
2021/05/18 11:27:36;;;;;;;4.78;2.30;;;17.90;48.80;;;;;;5012176;28;20033;-72
2021/05/18 11:30:02;;;;;;;3.70;2.08;;;17.50;47.00;;;;;;5026308;28;20045;-73
2021/05/18 11:32:28;;;;;;;3.97;2.20;;;17.10;48.30;;;;;;5026179;28;20041;-72
2021/05/18 11:34:59;;;;;;;5.15;2.40;;;16.90;48.70;;;;;;5029290;28;20045;-72
2021/05/18 11:37:29;;;;;;;7.55;2.00;;;17.50;49.30;;;;;;5023183;28;20032;-73
2021/05/18 11:40:12;;;;;;;4.35;2.00;;;17.90;45.90;;;;;;5025445;28;20431;-73
2021/05/18 11:42:38;;;;;;;4.72;2.25;;;18.10;45.70;;;;;;5024763;28;20111;-72
2021/05/18 11:45:22;;;;;;;3.65;2.00;;;18.10;46.00;;;;;;5037105;28;20036;-74
2021/05/18 11:47:51;;;;;;;5.43;2.00;;;18.40;45.30;;;;;;5014000;28;20460;-73
2021/05/18 11:50:26;;;;;;;4.72;1.92;;;19.00;43.20;;;;;;5008716;28;20653;-73
2021/05/18 11:52:52;;;;;;;;;;;18.80;45.60;;;;;;5017310;28;20037;-73
2021/05/18 11:55:31;;;;;;;3.78;1.70;;;18.10;44.80;;;;;;5020515;28;19913;-72
2021/05/18 11:57:59;;;;;;;3.35;1.70;;;17.20;45.60;;;;;;5000435;28;20065;-73
2021/05/18 12:00:33;;;;;;;3.47;1.70;;;17.30;47.00;;;;;;5000284;28;20124;-75
2021/05/18 12:03:00;;;;;;;;;;;17.60;46.00;;;;;;4999131;28;20466;-73
2021/05/18 12:05:25;;;;;;;4.25;1.67;;;17.60;45.10;;;;;;5005972;28;19936;-73
2021/05/18 12:07:51;;;;;;;4.20;2.10;;;18.30;45.10;;;;;;5021448;28;20409;-72
2021/05/18 12:10:27;;;;;;;4.22;1.75;;;18.50;43.20;;;;;;5023524;28;20434;-73
2021/05/18 12:12:53;;;;;;;4.60;1.60;;;18.40;43.60;;;;;;5024160;28;20129;-74
2021/05/18 12:15:18;;;;;;;3.53;1.75;;;18.40;46.30;;;;;;5008008;28;20511;-72
2021/05/18 12:17:44;;;;;;;4.70;1.60;;;18.60;47.20;;;;;;5002039;28;20118;-72
2021/05/18 12:20:15;;;;;;;5.50;1.50;;;18.60;44.90;;;;;;5003778;28;20049;-72
2021/05/18 12:22:43;;;;;;;4.00;1.73;;;18.50;43.30;;;;;;4997887;28;20050;-73
2021/05/18 12:25:10;;;;;;;5.30;1.70;;;18.60;43.90;;;;;;5020840;28;20425;-73
2021/05/18 12:27:45;;;;;;;4.95;2.00;;;18.80;44.40;;;;;;5024813;28;20169;-73
2021/05/18 12:30:11;;;;;;;4.40;1.70;;;19.00;43.60;;;;;;5024159;28;20501;-72
2021/05/18 12:32:46;;;;;;;5.22;1.75;;;19.10;41.80;;;;;;5020170;28;20030;-72
2021/05/18 12:35:22;;;;;;;3.20;1.50;;;19.10;43.80;;;;;;5020744;28;20030;-72
2021/05/18 12:37:50;;;;;;;4.55;1.60;;;19.10;43.50;;;;;;5012012;28;20040;-72
2021/05/18 12:40:26;;;;;;;6.75;1.80;;;19.10;40.90;;;;;;5012766;28;20112;-72
2021/05/18 12:42:53;;;;;;;5.00;1.95;;;19.10;43.50;;;;;;5027746;28;20042;-72
2021/05/18 12:45:21;;;;;;;7.43;2.00;;;19.30;42.60;;;;;;5024411;28;20397;-72
2021/05/18 12:47:58;;;;;;;2.85;1.48;;;18.70;42.80;;;;;;5023177;28;20041;-73
2021/05/18 12:50:43;;;;;;;3.55;1.58;;;18.10;44.10;;;;;;5029062;28;20029;-72
2021/05/18 12:53:27;;;;;;;3.35;1.90;;;17.80;46.30;;;;;;5020274;28;20037;-73
2021/05/18 12:55:53;;;;;;;3.70;1.50;;;18.20;45.50;;;;;;5019885;28;20045;-72
2021/05/18 12:58:28;;;;;;;2.55;1.40;;;18.50;41.80;;;;;;5022786;28;20049;-72
2021/05/18 13:01:03;;;;;;;;;;;18.80;41.30;;;;;;5024151;28;20044;-72
2021/05/18 13:03:29;;;;;;;3.83;1.58;;;18.80;43.80;;;;;;5034234;28;19921;-74
2021/05/18 13:05:56;;;;;;;3.92;1.80;;;18.40;43.90;;;;;;5016861;28;20025;-74
2021/05/18 13:08:23;;;;;;;4.25;1.80;;;18.60;43.60;;;;;;5026254;28;20044;-73
2021/05/18 13:13:27;;;;;;;2.60;1.48;;;18.80;42.40;;;;;;5021182;28;20026;-75
2021/05/18 13:16:16;;;;;;;3.17;1.55;;;18.80;42.10;;;;;;5033106;28;20094;-73
2021/05/18 13:19:02;;;;;;;4.55;1.70;;;18.90;42.80;;;;;;5022273;28;20070;-73
2021/05/18 13:21:49;;;;;;;3.15;1.55;;;18.80;42.70;;;;;;5013092;28;20033;-72
2021/05/18 13:26:53;;;;;;;3.25;1.70;;;18.80;40.70;;;;;;5023671;28;20037;-73
2021/05/18 13:29:20;;;;;;;3.67;1.90;;;18.90;42.60;;;;;;5020255;28;20037;-73
2021/05/18 13:31:48;;;;;;;7.00;2.22;;;19.10;42.70;;;;;;5022949;28;20044;-73
2021/05/18 13:34:14;;;;;;;5.25;1.70;;;19.10;41.40;;;;;;5020478;28;20112;-75
2021/05/18 13:36:39;;;;;;;3.33;1.60;;;19.20;41.70;;;;;;5027926;28;20087;-73
2021/05/18 13:39:26;;;;;;;5.28;2.05;;;19.40;42.10;;;;;;5021068;28;20034;-73
2021/05/18 13:41:52;;;;;;;4.30;1.83;;;19.80;41.20;;;;;;5025641;28;20072;-73
2021/05/18 13:44:18;;;;;;;5.45;2.05;;;19.90;40.50;;;;;;5020763;28;20091;-72
2021/05/18 13:46:47;;;;;;;3.33;1.75;;;19.60;42.00;;;;;;5026936;28;20040;-73
2021/05/18 13:49:14;;;;;;;4.03;1.55;;;18.80;40.90;;;;;;5024161;28;20041;-73
2021/05/18 13:51:40;;;;;;;4.70;1.75;;;18.90;41.10;;;;;;5021552;28;20116;-73
2021/05/18 13:54:06;;;;;;;3.50;1.90;;;18.80;42.40;;;;;;5025559;28;20149;-73
2021/05/18 13:56:33;;;;;;;2.95;1.58;;;18.60;43.00;;;;;;5026088;28;20509;-74
2021/05/18 13:58:59;;;;;;;3.75;1.83;;;18.70;43.50;;;;;;5026123;28;20041;-73
2021/05/18 14:01:25;;;;;;;5.10;2.00;;;18.50;43.60;;;;;;5020068;28;20034;-73
2021/05/18 14:03:53;;;;;;;4.15;2.00;;;18.50;43.30;;;;;;5020555;28;20387;-76
2021/05/18 14:06:19;;;;;;;4.53;2.20;;;18.40;44.20;;;;;;5024077;28;20179;-73
2021/05/18 14:08:44;;;;;;;5.00;2.00;;;18.30;43.50;;;;;;5022283;28;20061;-73
2021/05/18 14:11:12;;;;;;;5.90;1.90;;;17.90;45.50;;;;;;5020019;28;20532;-73
2021/05/18 14:13:46;;;;;;;7.43;2.58;;;18.00;46.50;;;;;;5028151;28;20076;-73
2021/05/18 14:16:18;;;;;;;4.32;2.10;;;18.00;44.90;;;;;;5027231;28;20047;-74
2021/05/18 14:18:46;;;;;;;5.57;2.47;;;17.90;44.70;;;;;;5027516;28;20041;-74
2021/05/18 14:21:13;;;;;;;5.00;2.30;;;17.90;45.80;;;;;;5027555;28;20033;-73
2021/05/18 14:26:29;;;;;;;7.13;2.40;;;18.20;46.80;;;;;;5006245;28;20026;-77
2021/05/18 14:28:55;;;;;;;5.57;2.45;;;18.40;45.60;;;;;;5021345;28;20445;-73
2021/05/18 14:31:21;;;;;;;4.38;2.40;;;18.70;44.90;;;;;;4999217;28;20471;-72
2021/05/18 14:33:47;;;;;;;4.78;2.47;;;19.00;44.40;;;;;;5021655;28;20128;-73
2021/05/18 14:36:13;;;;;;;8.88;2.50;;;19.10;46.30;;;;;;5024738;28;21061;-74
2021/05/18 14:38:42;;;;;;;6.20;3.05;;;18.70;43.60;;;;;;5027076;28;20061;-75
2021/05/18 14:44:06;;;;;;;4.43;2.50;;;18.20;44.30;;;;;;5029329;28;20049;-72
2021/05/18 14:57:02;;;;;;;5.88;3.22;;;19.30;44.00;;;;;;5011577;28;20041;-74
2021/05/18 14:59:28;;;;;;;6.65;3.40;;;19.60;42.10;;;;;;5016039;28;20041;-77
2021/05/18 15:01:53;;;;;;;7.13;3.40;;;19.70;42.80;;;;;;5024180;28;20056;-73
2021/05/18 15:04:19;;;;;;;5.70;3.50;;;20.20;42.10;;;;;;5026872;28;20025;-72
2021/05/18 15:06:45;;;;;;;6.75;3.00;;;19.40;42.30;;;;;;5027663;28;20038;-73
2021/05/18 15:09:10;;;;;;;7.95;3.60;;;19.30;42.70;;;;;;5028070;28;20034;-73
2021/05/18 15:11:37;;;;;;;8.35;3.83;;;18.80;43.80;;;;;;5011574;28;20046;-72
2021/05/18 15:14:04;;;;;;;8.57;3.60;;;18.60;43.70;;;;;;5027038;28;20049;-74
2021/05/18 15:16:29;;;;;;;7.45;3.90;;;18.50;44.50;;;;;;5027566;28;20026;-73
2021/05/18 15:19:02;;;;;;;6.97;3.75;;;18.60;44.80;;;;;;5024065;28;21262;-74
2021/05/18 15:21:28;;;;;;;7.10;4.18;;;18.50;46.50;;;;;;5023521;28;20037;-72
2021/05/18 15:23:54;;;;;;;7.75;4.03;;;18.30;45.10;;;;;;5020455;28;20401;-72
2021/05/18 15:26:19;;;;;;;7.32;4.53;;;18.20;46.80;;;;;;5013984;28;20056;-73
2021/05/18 15:28:45;;;;;;;8.13;4.75;;;18.10;45.90;;;;;;5009984;28;20366;-72
2021/05/18 15:31:11;;;;;;;6.88;4.50;;;18.10;46.80;;;;;;5002968;28;20426;-72
2021/05/18 15:33:37;;;;;;;9.32;5.85;;;17.80;47.80;;;;;;5002906;28;20049;-73
2021/05/18 15:36:04;;;;;;;8.65;5.30;;;18.00;48.20;;;;;;5003576;28;20457;-72
2021/05/18 15:38:37;;;;;;;8.00;5.32;;;18.00;48.70;;;;;;4997648;28;20057;-72
2021/05/18 15:41:03;;;;;;;8.05;5.28;;;18.00;47.20;;;;;;5002325;28;20105;-72
2021/05/18 15:43:28;;;;;;;7.13;4.93;;;18.00;48.30;;;;;;5000082;28;20117;-73
2021/05/18 15:45:54;;;;;;;6.55;4.63;;;18.20;48.80;;;;;;5004526;28;20433;-72
2021/05/18 15:48:19;;;;;;;12.18;4.90;;;18.40;48.70;;;;;;5000775;28;20389;-74
2021/05/18 15:50:45;;;;;;;7.28;4.80;;;18.40;48.30;;;;;;5003473;28;20482;-73
2021/05/18 15:53:12;;;;;;;8.13;3.83;;;18.10;48.20;;;;;;5002551;28;20478;-73
2021/05/18 15:55:38;;;;;;;6.13;3.80;;;18.20;48.20;;;;;;5004194;28;20062;-71
2021/05/18 15:58:03;;;;;;;7.30;3.90;;;18.30;48.20;;;;;;5001993;28;20053;-72
2021/05/18 16:00:29;;;;;;;9.43;4.22;;;18.10;48.50;;;;;;5001007;28;20493;-73
2021/05/18 16:02:55;;;;;;;8.75;4.50;;;17.80;49.10;;;;;;4998973;28;20359;-74
2021/05/18 16:05:20;;;;;;;7.57;3.78;;;17.70;49.50;;;;;;5006367;28;20412;-72
2021/05/18 16:07:53;;;;;;;7.57;3.90;;;17.80;50.00;;;;;;5021547;28;20030;-72
2021/05/18 16:10:18;;;;;;;6.40;3.78;;;17.90;49.50;;;;;;5019652;28;20079;-73
2021/05/18 16:12:44;;;;;;;7.72;4.30;;;18.10;49.90;;;;;;5012963;28;20414;-72
2021/05/18 16:15:10;;;;;;;8.63;4.18;;;18.10;49.60;;;;;;5002955;28;20030;-73
2021/05/18 16:17:36;;;;;;;5.43;3.58;;;18.00;49.60;;;;;;5014807;28;20108;-73
2021/05/18 16:20:02;;;;;;;8.38;3.97;;;18.00;49.50;;;;;;5017251;28;20036;-72
2021/05/18 16:22:27;;;;;;;7.75;4.70;;;18.10;49.90;;;;;;5016682;28;20428;-73
2021/05/18 16:24:53;;;;;;;8.60;3.97;;;17.70;49.90;;;;;;5000912;28;20033;-72
2021/05/18 16:27:19;;;;;;;7.72;4.00;;;17.60;50.60;;;;;;4994215;28;20114;-74
2021/05/18 16:29:44;;;;;;;8.45;3.75;;;17.10;50.00;;;;;;4993225;28;20030;-72
2021/05/18 16:32:11;;;;;;;6.10;3.60;;;16.90;50.10;;;;;;4995644;28;20035;-72
2021/05/18 16:34:37;;;;;;;7.35;3.20;;;16.70;50.50;;;;;;5001673;28;20034;-73
2021/05/18 16:37:03;;;;;;;5.80;3.00;;;16.60;51.40;;;;;;4995469;28;20033;-73
2021/05/18 16:39:29;;;;;;;7.43;3.65;;;16.40;52.80;;;;;;5002573;28;20052;-73
2021/05/18 16:41:55;;;;;;;7.82;3.80;;;16.30;53.90;;;;;;5012203;28;20400;-75
2021/05/18 16:44:22;;;;;;;11.05;5.00;;;16.30;54.90;;;;;;5018578;28;20045;-76
2021/05/18 16:46:48;;;;;;;7.53;4.25;;;16.20;55.70;;;;;;5001481;28;20043;-76
2021/05/18 16:49:14;;;;;;;8.90;4.63;;;16.10;56.10;;;;;;5017007;28;20159;-73
2021/05/18 16:51:40;;;;;;;11.32;5.50;;;16.00;56.10;;;;;;5015167;28;20460;-73
2021/05/18 16:54:10;;;;;;;11.52;5.32;;;15.90;58.40;;;;;;5013976;28;20041;-74
2021/05/18 16:56:37;;;;;;;9.63;5.82;;;15.80;59.90;;;;;;5014764;28;20069;-77
2021/05/18 16:59:04;;;;;;;12.68;7.13;;;15.80;61.90;;;;;;5014878;28;20068;-73
2021/05/18 17:01:30;;;;;;;12.02;7.93;;;15.50;63.90;;;;;;5016750;28;20037;-75
2021/05/18 17:03:55;;;;;;;13.57;7.85;;;15.40;66.00;;;;;;5015587;28;20037;-76
2021/05/18 17:06:21;;;;;;;11.75;8.48;;;15.30;67.90;;;;;;4997032;28;20045;-73
2021/05/18 17:08:46;;;;;;;12.43;7.45;;;15.00;68.10;;;;;;4998918;28;20072;-73
2021/05/18 17:11:12;;;;;;;10.15;5.10;;;14.80;70.20;;;;;;5011564;28;20508;-76
2021/05/18 17:13:38;;;;;;;8.50;4.35;;;14.10;70.40;;;;;;5008818;28;20068;-73
2021/05/18 17:16:04;;;;;;;8.35;4.38;;;14.10;71.20;;;;;;5010782;28;20580;-73
2021/05/18 17:18:31;;;;;;;7.90;4.68;;;14.00;70.10;;;;;;5018847;28;20025;-73
2021/05/18 17:20:57;;;;;;;8.82;4.97;;;14.20;69.90;;;;;;5011725;28;20034;-76
2021/05/18 17:23:23;;;;;;;8.48;5.10;;;14.50;72.00;;;;;;5016569;28;20087;-75
2021/05/18 17:25:49;;;;;;;10.60;5.70;;;14.80;72.10;;;;;;5016412;28;20068;-74
2021/05/18 17:28:15;;;;;;;7.30;4.22;;;15.10;71.00;;;;;;5012308;28;20025;-73
2021/05/18 17:30:41;;;;;;;10.18;4.68;;;15.50;71.00;;;;;;5022086;28;20053;-77
2021/05/18 17:33:09;;;;;;;9.68;5.68;;;15.70;66.90;;;;;;5018848;28;20079;-73
2021/05/18 17:35:34;;;;;;;8.90;5.90;;;16.20;66.40;;;;;;5020197;28;20462;-73
2021/05/18 17:38:00;;;;;;;11.63;6.63;;;16.50;67.20;;;;;;5022110;28;20125;-73
2021/05/18 17:40:26;;;;;;;12.23;7.10;;;16.70;67.20;;;;;;4997032;28;20084;-74
2021/05/18 17:42:51;;;;;;;9.85;6.00;;;16.80;65.90;;;;;;4997239;28;20053;-75
2021/05/18 17:45:17;;;;;;;10.63;5.60;;;17.10;65.60;;;;;;5003672;28;20063;-73
2021/05/18 17:47:43;;;;;;;12.88;5.65;;;17.40;66.30;;;;;;5017826;28;20128;-72
2021/05/18 17:50:12;;;;;;;7.95;4.68;;;17.40;64.30;;;;;;5020748;28;20124;-72
2021/05/18 17:52:38;;;;;;;11.55;6.68;;;17.50;64.80;;;;;;5021079;28;20030;-73
2021/05/18 17:55:06;;;;;;;11.55;7.20;;;17.30;66.50;;;;;;5015899;28;20056;-73
2021/05/18 17:57:32;;;;;;;10.52;6.95;;;17.10;67.50;;;;;;5017630;28;20057;-74
2021/05/18 17:59:58;;;;;;;9.40;6.47;;;16.90;66.90;;;;;;5021148;28;20416;-73